sensor_id;sensor_type;location;lat;lon;timestamp;P1;durP1;ratioP1;P2;durP2;ratioP2
65863;SDS011;52639;51.180;20.460;2023-07-20T00:34:46;16.55;;;8.50;;
65863;SDS011;52639;51.180;20.460;2023-07-20T00:38:49;12.82;;;8.35;;
65863;SDS011;52639;51.180;20.460;2023-07-20T00:42:52;12.57;;;9.00;;
65863;SDS011;52639;51.180;20.460;2023-07-20T00:46:54;12.52;;;7.97;;
65863;SDS011;52639;51.180;20.460;2023-07-20T00:50:59;9.75;;;7.45;;
65863;SDS011;52639;51.180;20.460;2023-07-20T00:55:04;8.18;;;6.45;;
65863;SDS011;52639;51.180;20.460;2023-07-20T00:59:07;10.98;;;7.97;;
65863;SDS011;52639;51.180;20.460;2023-07-20T01:03:10;11.45;;;7.13;;
65863;SDS011;52639;51.180;20.460;2023-07-20T01:07:14;11.35;;;7.43;;
65863;SDS011;52639;51.180;20.460;2023-07-20T01:11:22;13.82;;;8.65;;
65863;SDS011;52639;51.180;20.460;2023-07-20T01:15:33;10.10;;;7.22;;
65863;SDS011;52639;51.180;20.460;2023-07-20T01:19:36;10.35;;;7.88;;
65863;SDS011;52639;51.180;20.460;2023-07-20T01:28:34;12.32;;;7.93;;
65863;SDS011;52639;51.180;20.460;2023-07-20T01:32:46;11.50;;;8.35;;
65863;SDS011;52639;51.180;20.460;2023-07-20T01:36:50;11.48;;;8.10;;
65863;SDS011;52639;51.180;20.460;2023-07-20T01:40:54;10.82;;;7.50;;
65863;SDS011;52639;51.180;20.460;2023-07-20T01:44:58;8.93;;;6.53;;
65863;SDS011;52639;51.180;20.460;2023-07-20T01:49:02;10.00;;;6.57;;
65863;SDS011;52639;51.180;20.460;2023-07-20T01:53:05;9.80;;;6.97;;
65863;SDS011;52639;51.180;20.460;2023-07-20T01:57:08;9.88;;;7.10;;
65863;SDS011;52639;51.180;20.460;2023-07-20T02:01:11;10.80;;;7.18;;
65863;SDS011;52639;51.180;20.460;2023-07-20T02:05:15;8.55;;;6.78;;
65863;SDS011;52639;51.180;20.460;2023-07-20T02:09:18;9.75;;;7.15;;
65863;SDS011;52639;51.180;20.460;2023-07-20T02:13:21;9.82;;;6.55;;
65863;SDS011;52639;51.180;20.460;2023-07-20T02:17:24;7.40;;;6.00;;
65863;SDS011;52639;51.180;20.460;2023-07-20T02:21:28;8.40;;;6.15;;
65863;SDS011;52639;51.180;20.460;2023-07-20T02:25:31;7.88;;;6.30;;
65863;SDS011;52639;51.180;20.460;2023-07-20T02:29:34;8.50;;;6.05;;
65863;SDS011;52639;51.180;20.460;2023-07-20T02:33:36;10.60;;;5.90;;
65863;SDS011;52639;51.180;20.460;2023-07-20T02:37:41;8.85;;;6.15;;
65863;SDS011;52639;51.180;20.460;2023-07-20T02:41:44;12.10;;;6.32;;
65863;SDS011;52639;51.180;20.460;2023-07-20T02:45:46;9.45;;;5.88;;
65863;SDS011;52639;51.180;20.460;2023-07-20T02:49:49;9.63;;;5.80;;
65863;SDS011;52639;51.180;20.460;2023-07-20T02:53:54;9.30;;;6.05;;
65863;SDS011;52639;51.180;20.460;2023-07-20T02:57:56;9.27;;;6.57;;
65863;SDS011;52639;51.180;20.460;2023-07-20T03:01:59;11.30;;;7.07;;
65863;SDS011;52639;51.180;20.460;2023-07-20T03:06:02;8.85;;;6.32;;
65863;SDS011;52639;51.180;20.460;2023-07-20T03:10:07;8.75;;;5.78;;
65863;SDS011;52639;51.180;20.460;2023-07-20T03:14:10;8.73;;;5.22;;
65863;SDS011;52639;51.180;20.460;2023-07-20T03:18:13;9.27;;;5.88;;
65863;SDS011;52639;51.180;20.460;2023-07-20T03:22:16;11.55;;;6.35;;
65863;SDS011;52639;51.180;20.460;2023-07-20T03:26:20;9.35;;;6.28;;
65863;SDS011;52639;51.180;20.460;2023-07-20T03:30:23;8.27;;;5.53;;
65863;SDS011;52639;51.180;20.460;2023-07-20T03:34:26;8.88;;;6.35;;
65863;SDS011;52639;51.180;20.460;2023-07-20T03:38:29;8.70;;;5.65;;
65863;SDS011;52639;51.180;20.460;2023-07-20T03:42:33;13.65;;;7.03;;
65863;SDS011;52639;51.180;20.460;2023-07-20T03:46:37;11.15;;;6.57;;
65863;SDS011;52639;51.180;20.460;2023-07-20T03:50:39;6.80;;;5.20;;
65863;SDS011;52639;51.180;20.460;2023-07-20T03:54:42;8.57;;;5.38;;
65863;SDS011;52639;51.180;20.460;2023-07-20T03:58:47;9.90;;;5.45;;
65863;SDS011;52639;51.180;20.460;2023-07-20T04:02:49;10.93;;;5.78;;
65863;SDS011;52639;51.180;20.460;2023-07-20T04:06:52;9.65;;;6.55;;
65863;SDS011;52639;51.180;20.460;2023-07-20T04:10:54;9.52;;;7.47;;
65863;SDS011;52639;51.180;20.460;2023-07-20T04:14:59;10.30;;;7.10;;
65863;SDS011;52639;51.180;20.460;2023-07-20T04:19:02;9.15;;;6.47;;
65863;SDS011;52639;51.180;20.460;2023-07-20T04:23:05;9.70;;;6.25;;
65863;SDS011;52639;51.180;20.460;2023-07-20T04:27:08;10.70;;;6.50;;
65863;SDS011;52639;51.180;20.460;2023-07-20T04:31:12;13.98;;;6.60;;
65863;SDS011;52639;51.180;20.460;2023-07-20T04:35:17;9.38;;;6.40;;
65863;SDS011;52639;51.180;20.460;2023-07-20T04:39:40;11.40;;;7.43;;
65863;SDS011;52639;51.180;20.460;2023-07-20T04:43:43;9.85;;;6.40;;
65863;SDS011;52639;51.180;20.460;2023-07-20T04:47:48;9.65;;;6.70;;
65863;SDS011;52639;51.180;20.460;2023-07-20T04:51:52;11.13;;;6.47;;
65863;SDS011;52639;51.180;20.460;2023-07-20T04:55:55;9.20;;;6.68;;
65863;SDS011;52639;51.180;20.460;2023-07-20T04:59:57;14.93;;;10.45;;
65863;SDS011;52639;51.180;20.460;2023-07-20T05:04:01;19.75;;;12.25;;
65863;SDS011;52639;51.180;20.460;2023-07-20T05:08:04;15.75;;;10.10;;
65863;SDS011;52639;51.180;20.460;2023-07-20T05:12:08;12.73;;;8.95;;
65863;SDS011;52639;51.180;20.460;2023-07-20T05:16:12;12.85;;;7.25;;
65863;SDS011;52639;51.180;20.460;2023-07-20T05:20:17;11.10;;;6.13;;
65863;SDS011;52639;51.180;20.460;2023-07-20T05:24:21;14.13;;;7.70;;
65863;SDS011;52639;51.180;20.460;2023-07-20T05:28:24;11.18;;;6.40;;
65863;SDS011;52639;51.180;20.460;2023-07-20T05:32:27;10.23;;;6.85;;
65863;SDS011;52639;51.180;20.460;2023-07-20T05:36:32;34.80;;;21.63;;
65863;SDS011;52639;51.180;20.460;2023-07-20T05:40:36;14.55;;;11.07;;
65863;SDS011;52639;51.180;20.460;2023-07-20T05:44:40;17.15;;;6.53;;
65863;SDS011;52639;51.180;20.460;2023-07-20T05:48:43;10.32;;;6.75;;
65863;SDS011;52639;51.180;20.460;2023-07-20T05:52:47;9.75;;;8.50;;
65863;SDS011;52639;51.180;20.460;2023-07-20T05:56:50;7.75;;;5.30;;
65863;SDS011;52639;51.180;20.460;2023-07-20T06:00:53;7.38;;;4.80;;
65863;SDS011;52639;51.180;20.460;2023-07-20T06:04:56;9.93;;;7.10;;
65863;SDS011;52639;51.180;20.460;2023-07-20T06:09:00;8.63;;;5.70;;
65863;SDS011;52639;51.180;20.460;2023-07-20T06:13:06;22.92;;;20.00;;
65863;SDS011;52639;51.180;20.460;2023-07-20T06:17:09;7.88;;;5.15;;
65863;SDS011;52639;51.180;20.460;2023-07-20T06:21:12;8.13;;;4.82;;
65863;SDS011;52639;51.180;20.460;2023-07-20T06:25:17;8.45;;;3.90;;
65863;SDS011;52639;51.180;20.460;2023-07-20T06:29:21;15.75;;;4.60;;
65863;SDS011;52639;51.180;20.460;2023-07-20T06:33:24;9.38;;;4.15;;
65863;SDS011;52639;51.180;20.460;2023-07-20T06:37:27;10.88;;;4.80;;
65863;SDS011;52639;51.180;20.460;2023-07-20T06:41:31;17.15;;;4.60;;
65863;SDS011;52639;51.180;20.460;2023-07-20T06:45:34;10.98;;;3.80;;
65863;SDS011;52639;51.180;20.460;2023-07-20T06:49:37;15.90;;;4.10;;
65863;SDS011;52639;51.180;20.460;2023-07-20T06:53:40;5.28;;;3.30;;
65863;SDS011;52639;51.180;20.460;2023-07-20T06:57:44;6.13;;;3.55;;
65863;SDS011;52639;51.180;20.460;2023-07-20T07:01:47;6.20;;;3.60;;
65863;SDS011;52639;51.180;20.460;2023-07-20T07:05:50;6.63;;;3.80;;
65863;SDS011;52639;51.180;20.460;2023-07-20T07:09:57;7.38;;;3.65;;
65863;SDS011;52639;51.180;20.460;2023-07-20T07:14:01;7.57;;;4.22;;
65863;SDS011;52639;51.180;20.460;2023-07-20T07:18:04;14.18;;;5.40;;
65863;SDS011;52639;51.180;20.460;2023-07-20T07:22:07;11.40;;;5.10;;
65863;SDS011;52639;51.180;20.460;2023-07-20T07:26:10;11.07;;;4.50;;
65863;SDS011;52639;51.180;20.460;2023-07-20T07:30:15;10.43;;;4.00;;
65863;SDS011;52639;51.180;20.460;2023-07-20T07:34:18;6.35;;;3.10;;
65863;SDS011;52639;51.180;20.460;2023-07-20T07:38:20;6.72;;;3.42;;
65863;SDS011;52639;51.180;20.460;2023-07-20T07:42:23;7.10;;;3.17;;
65863;SDS011;52639;51.180;20.460;2023-07-20T07:46:28;4.07;;;2.15;;
65863;SDS011;52639;51.180;20.460;2023-07-20T07:50:31;5.30;;;2.42;;
65863;SDS011;52639;51.180;20.460;2023-07-20T07:54:34;3.70;;;2.45;;
65863;SDS011;52639;51.180;20.460;2023-07-20T07:58:37;3.78;;;2.20;;
65863;SDS011;52639;51.180;20.460;2023-07-20T08:02:41;4.38;;;2.00;;
65863;SDS011;52639;51.180;20.460;2023-07-20T08:06:45;5.63;;;2.60;;
65863;SDS011;52639;51.180;20.460;2023-07-20T08:10:48;7.25;;;2.50;;
65863;SDS011;52639;51.180;20.460;2023-07-20T08:14:51;5.95;;;2.47;;
65863;SDS011;52639;51.180;20.460;2023-07-20T08:18:55;5.35;;;2.60;;
65863;SDS011;52639;51.180;20.460;2023-07-20T08:22:58;7.80;;;3.35;;
65863;SDS011;52639;51.180;20.460;2023-07-20T08:27:01;3.83;;;2.70;;
65863;SDS011;52639;51.180;20.460;2023-07-20T08:31:05;4.35;;;2.78;;
65863;SDS011;52639;51.180;20.460;2023-07-20T08:35:11;5.72;;;2.72;;
65863;SDS011;52639;51.180;20.460;2023-07-20T08:39:16;3.97;;;2.50;;
65863;SDS011;52639;51.180;20.460;2023-07-20T08:43:19;4.57;;;3.10;;
65863;SDS011;52639;51.180;20.460;2023-07-20T08:47:24;6.70;;;3.58;;
65863;SDS011;52639;51.180;20.460;2023-07-20T08:51:33;4.40;;;3.25;;
65863;SDS011;52639;51.180;20.460;2023-07-20T08:55:39;4.68;;;3.47;;
65863;SDS011;52639;51.180;20.460;2023-07-20T08:59:42;5.75;;;4.07;;
65863;SDS011;52639;51.180;20.460;2023-07-20T09:03:46;5.13;;;3.70;;
65863;SDS011;52639;51.180;20.460;2023-07-20T09:07:52;6.28;;;4.40;;
65863;SDS011;52639;51.180;20.460;2023-07-20T09:11:55;5.47;;;3.97;;
65863;SDS011;52639;51.180;20.460;2023-07-20T09:15:58;9.75;;;4.78;;
65863;SDS011;52639;51.180;20.460;2023-07-20T09:20:01;8.80;;;5.38;;
65863;SDS011;52639;51.180;20.460;2023-07-20T09:24:13;7.45;;;4.43;;
65863;SDS011;52639;51.180;20.460;2023-07-20T09:28:16;7.47;;;4.60;;
65863;SDS011;52639;51.180;20.460;2023-07-20T09:32:19;8.55;;;4.78;;
65863;SDS011;52639;51.180;20.460;2023-07-20T09:36:24;9.10;;;5.60;;
65863;SDS011;52639;51.180;20.460;2023-07-20T09:40:30;8.85;;;6.03;;
65863;SDS011;52639;51.180;20.460;2023-07-20T09:44:43;9.43;;;5.88;;
65863;SDS011;52639;51.180;20.460;2023-07-20T09:48:51;16.90;;;6.93;;
65863;SDS011;52639;51.180;20.460;2023-07-20T09:52:56;12.27;;;7.03;;
65863;SDS011;52639;51.180;20.460;2023-07-20T09:57:00;13.45;;;7.70;;
65863;SDS011;52639;51.180;20.460;2023-07-20T10:01:04;11.90;;;8.30;;
65863;SDS011;52639;51.180;20.460;2023-07-20T10:05:11;11.88;;;7.85;;
65863;SDS011;52639;51.180;20.460;2023-07-20T10:09:19;11.00;;;7.97;;
65863;SDS011;52639;51.180;20.460;2023-07-20T10:13:29;12.27;;;8.07;;
65863;SDS011;52639;51.180;20.460;2023-07-20T10:17:32;12.38;;;8.18;;
65863;SDS011;52639;51.180;20.460;2023-07-20T10:21:35;11.00;;;7.60;;
65863;SDS011;52639;51.180;20.460;2023-07-20T10:25:43;11.77;;;8.15;;
65863;SDS011;52639;51.180;20.460;2023-07-20T10:29:49;13.68;;;9.07;;
65863;SDS011;52639;51.180;20.460;2023-07-20T10:33:54;14.95;;;10.15;;
65863;SDS011;52639;51.180;20.460;2023-07-20T10:38:01;13.45;;;8.32;;
65863;SDS011;52639;51.180;20.460;2023-07-20T10:42:06;12.13;;;8.43;;
65863;SDS011;52639;51.180;20.460;2023-07-20T10:46:12;12.43;;;8.32;;
65863;SDS011;52639;51.180;20.460;2023-07-20T10:50:15;10.57;;;7.07;;
65863;SDS011;52639;51.180;20.460;2023-07-20T10:54:46;12.75;;;8.07;;
65863;SDS011;52639;51.180;20.460;2023-07-20T10:58:54;10.13;;;6.55;;
65863;SDS011;52639;51.180;20.460;2023-07-20T11:03:00;13.77;;;5.85;;
65863;SDS011;52639;51.180;20.460;2023-07-20T11:07:03;9.00;;;4.88;;
65863;SDS011;52639;51.180;20.460;2023-07-20T11:11:23;8.27;;;4.95;;
65863;SDS011;52639;51.180;20.460;2023-07-20T11:15:26;10.38;;;5.05;;
65863;SDS011;52639;51.180;20.460;2023-07-20T11:19:30;6.60;;;4.80;;
65863;SDS011;52639;51.180;20.460;2023-07-20T11:23:33;10.75;;;4.90;;
65863;SDS011;52639;51.180;20.460;2023-07-20T11:27:43;6.45;;;4.25;;
65863;SDS011;52639;51.180;20.460;2023-07-20T11:31:49;9.13;;;4.35;;
65863;SDS011;52639;51.180;20.460;2023-07-20T11:35:53;7.20;;;4.55;;
65863;SDS011;52639;51.180;20.460;2023-07-20T11:39:56;7.15;;;4.28;;
65863;SDS011;52639;51.180;20.460;2023-07-20T11:43:59;6.60;;;4.05;;
65863;SDS011;52639;51.180;20.460;2023-07-20T11:48:02;5.22;;;3.50;;
65863;SDS011;52639;51.180;20.460;2023-07-20T11:52:06;12.27;;;3.60;;
65863;SDS011;52639;51.180;20.460;2023-07-20T11:56:10;6.15;;;3.63;;
65863;SDS011;52639;51.180;20.460;2023-07-20T12:00:14;6.20;;;3.28;;
65863;SDS011;52639;51.180;20.460;2023-07-20T12:04:23;6.83;;;3.27;;
65863;SDS011;52639;51.180;20.460;2023-07-20T12:08:27;4.25;;;2.97;;
65863;SDS011;52639;51.180;20.460;2023-07-20T12:12:31;4.20;;;2.90;;
65863;SDS011;52639;51.180;20.460;2023-07-20T12:16:36;4.88;;;2.70;;
65863;SDS011;52639;51.180;20.460;2023-07-20T12:20:40;5.05;;;3.08;;
65863;SDS011;52639;51.180;20.460;2023-07-20T12:24:45;4.93;;;2.70;;
65863;SDS011;52639;51.180;20.460;2023-07-20T12:28:48;5.95;;;2.83;;
65863;SDS011;52639;51.180;20.460;2023-07-20T12:32:51;3.65;;;3.03;;
65863;SDS011;52639;51.180;20.460;2023-07-20T12:36:54;4.57;;;2.90;;
65863;SDS011;52639;51.180;20.460;2023-07-20T12:40:59;12.73;;;3.08;;
65863;SDS011;52639;51.180;20.460;2023-07-20T12:45:03;4.85;;;2.90;;
65863;SDS011;52639;51.180;20.460;2023-07-20T12:49:07;4.82;;;2.92;;
65863;SDS011;52639;51.180;20.460;2023-07-20T12:53:09;3.38;;;2.75;;
65863;SDS011;52639;51.180;20.460;2023-07-20T12:57:14;3.40;;;2.40;;
65863;SDS011;52639;51.180;20.460;2023-07-20T13:01:17;5.30;;;2.25;;
65863;SDS011;52639;51.180;20.460;2023-07-20T13:05:20;2.97;;;2.33;;
65863;SDS011;52639;51.180;20.460;2023-07-20T13:09:22;5.47;;;2.50;;
65863;SDS011;52639;51.180;20.460;2023-07-20T13:13:26;4.35;;;2.20;;
65863;SDS011;52639;51.180;20.460;2023-07-20T13:17:29;4.40;;;2.80;;
65863;SDS011;52639;51.180;20.460;2023-07-20T13:21:32;6.80;;;2.60;;
65863;SDS011;52639;51.180;20.460;2023-07-20T13:25:35;4.82;;;2.72;;
65863;SDS011;52639;51.180;20.460;2023-07-20T13:29:39;3.00;;;2.30;;
65863;SDS011;52639;51.180;20.460;2023-07-20T13:33:42;3.88;;;2.60;;
65863;SDS011;52639;51.180;20.460;2023-07-20T13:37:45;2.83;;;2.00;;
65863;SDS011;52639;51.180;20.460;2023-07-20T13:41:49;2.10;;;1.40;;
65863;SDS011;52639;51.180;20.460;2023-07-20T13:45:55;1.63;;;1.30;;
65863;SDS011;52639;51.180;20.460;2023-07-20T13:49:58;3.78;;;1.67;;
65863;SDS011;52639;51.180;20.460;2023-07-20T13:54:02;3.53;;;1.45;;
65863;SDS011;52639;51.180;20.460;2023-07-20T13:58:05;1.92;;;1.50;;
65863;SDS011;52639;51.180;20.460;2023-07-20T14:02:09;1.90;;;1.52;;
65863;SDS011;52639;51.180;20.460;2023-07-20T14:06:14;4.40;;;1.88;;
65863;SDS011;52639;51.180;20.460;2023-07-20T14:10:17;4.93;;;1.80;;
65863;SDS011;52639;51.180;20.460;2023-07-20T14:14:20;4.18;;;1.77;;
65863;SDS011;52639;51.180;20.460;2023-07-20T14:18:24;2.35;;;1.75;;
65863;SDS011;52639;51.180;20.460;2023-07-20T14:22:28;4.07;;;1.50;;
65863;SDS011;52639;51.180;20.460;2023-07-20T14:26:30;2.53;;;1.85;;
65863;SDS011;52639;51.180;20.460;2023-07-20T14:30:33;4.63;;;1.92;;
65863;SDS011;52639;51.180;20.460;2023-07-20T14:34:38;2.30;;;1.73;;
65863;SDS011;52639;51.180;20.460;2023-07-20T14:38:41;2.97;;;1.77;;
65863;SDS011;52639;51.180;20.460;2023-07-20T14:42:44;2.97;;;1.80;;
65863;SDS011;52639;51.180;20.460;2023-07-20T14:46:47;4.03;;;1.73;;
65863;SDS011;52639;51.180;20.460;2023-07-20T14:50:52;3.08;;;1.90;;
65863;SDS011;52639;51.180;20.460;2023-07-20T14:54:55;3.45;;;2.05;;
65863;SDS011;52639;51.180;20.460;2023-07-20T14:58:58;3.30;;;2.40;;
65863;SDS011;52639;51.180;20.460;2023-07-20T15:03:02;7.78;;;3.05;;
65863;SDS011;52639;51.180;20.460;2023-07-20T15:07:09;8.90;;;3.70;;
65863;SDS011;52639;51.180;20.460;2023-07-20T15:11:11;12.48;;;5.10;;
65863;SDS011;52639;51.180;20.460;2023-07-20T15:15:14;9.15;;;4.93;;
65863;SDS011;52639;51.180;20.460;2023-07-20T15:19:18;6.68;;;3.45;;
65863;SDS011;52639;51.180;20.460;2023-07-20T15:23:24;9.18;;;3.58;;
65863;SDS011;52639;51.180;20.460;2023-07-20T15:27:27;4.55;;;2.30;;
65863;SDS011;52639;51.180;20.460;2023-07-20T15:31:30;4.03;;;2.15;;
65863;SDS011;52639;51.180;20.460;2023-07-20T15:35:34;6.10;;;2.33;;
65863;SDS011;52639;51.180;20.460;2023-07-20T15:39:38;5.68;;;2.30;;
65863;SDS011;52639;51.180;20.460;2023-07-20T15:43:41;4.13;;;2.10;;
65863;SDS011;52639;51.180;20.460;2023-07-20T15:47:45;3.55;;;1.90;;
65863;SDS011;52639;51.180;20.460;2023-07-20T15:51:51;5.30;;;2.30;;
65863;SDS011;52639;51.180;20.460;2023-07-20T15:55:55;3.50;;;2.30;;
65863;SDS011;52639;51.180;20.460;2023-07-20T15:59:58;3.05;;;2.20;;
65863;SDS011;52639;51.180;20.460;2023-07-20T16:04:01;3.78;;;2.50;;
65863;SDS011;52639;51.180;20.460;2023-07-20T16:08:04;2.70;;;2.10;;
65863;SDS011;52639;51.180;20.460;2023-07-20T16:12:09;3.33;;;2.35;;
65863;SDS011;52639;51.180;20.460;2023-07-20T16:16:13;2.83;;;2.35;;
65863;SDS011;52639;51.180;20.460;2023-07-20T16:20:16;4.57;;;2.55;;
65863;SDS011;52639;51.180;20.460;2023-07-20T16:24:19;3.45;;;2.67;;
65863;SDS011;52639;51.180;20.460;2023-07-20T16:28:24;3.58;;;2.90;;
65863;SDS011;52639;51.180;20.460;2023-07-20T16:32:27;3.95;;;3.00;;
65863;SDS011;52639;51.180;20.460;2023-07-20T16:36:31;4.68;;;3.25;;
65863;SDS011;52639;51.180;20.460;2023-07-20T16:40:36;5.30;;;3.55;;
65863;SDS011;52639;51.180;20.460;2023-07-20T16:44:40;7.03;;;3.58;;
65863;SDS011;52639;51.180;20.460;2023-07-20T16:48:45;4.50;;;3.47;;
65863;SDS011;52639;51.180;20.460;2023-07-20T16:52:48;7.70;;;4.10;;
65863;SDS011;52639;51.180;20.460;2023-07-20T16:56:51;4.85;;;3.65;;
65863;SDS011;52639;51.180;20.460;2023-07-20T17:01:01;9.23;;;3.72;;
65863;SDS011;52639;51.180;20.460;2023-07-20T17:05:08;3.92;;;3.13;;
65863;SDS011;52639;51.180;20.460;2023-07-20T17:09:11;6.05;;;3.53;;
65863;SDS011;52639;51.180;20.460;2023-07-20T17:13:17;5.60;;;3.45;;
65863;SDS011;52639;51.180;20.460;2023-07-20T17:17:27;8.00;;;4.88;;
65863;SDS011;52639;51.180;20.460;2023-07-20T17:21:30;5.32;;;3.70;;
65863;SDS011;52639;51.180;20.460;2023-07-20T17:25:34;6.35;;;3.78;;
65863;SDS011;52639;51.180;20.460;2023-07-20T17:29:39;7.32;;;4.20;;
65863;SDS011;52639;51.180;20.460;2023-07-20T17:33:45;8.15;;;4.65;;
65863;SDS011;52639;51.180;20.460;2023-07-20T17:37:48;5.55;;;4.50;;
65863;SDS011;52639;51.180;20.460;2023-07-20T17:41:53;7.30;;;4.47;;
65863;SDS011;52639;51.180;20.460;2023-07-20T17:46:02;9.20;;;5.00;;
65863;SDS011;52639;51.180;20.460;2023-07-20T17:50:07;7.93;;;5.38;;
65863;SDS011;52639;51.180;20.460;2023-07-20T17:54:11;9.32;;;5.65;;
65863;SDS011;52639;51.180;20.460;2023-07-20T17:58:15;10.68;;;6.65;;
65863;SDS011;52639;51.180;20.460;2023-07-20T18:02:19;10.35;;;5.70;;
65863;SDS011;52639;51.180;20.460;2023-07-20T18:06:28;12.88;;;6.75;;
65863;SDS011;52639;51.180;20.460;2023-07-20T18:10:31;21.10;;;10.32;;
65863;SDS011;52639;51.180;20.460;2023-07-20T18:14:35;26.52;;;11.75;;
65863;SDS011;52639;51.180;20.460;2023-07-20T18:18:39;10.02;;;6.32;;
65863;SDS011;52639;51.180;20.460;2023-07-20T18:22:46;7.70;;;5.05;;
65863;SDS011;52639;51.180;20.460;2023-07-20T18:26:50;8.23;;;5.90;;
65863;SDS011;52639;51.180;20.460;2023-07-20T18:30:53;7.65;;;6.45;;
65863;SDS011;52639;51.180;20.460;2023-07-20T18:34:59;10.30;;;6.95;;
65863;SDS011;52639;51.180;20.460;2023-07-20T18:39:05;10.73;;;7.13;;
65863;SDS011;52639;51.180;20.460;2023-07-20T18:43:09;15.63;;;7.65;;
65863;SDS011;52639;51.180;20.460;2023-07-20T18:47:14;11.50;;;7.72;;
65863;SDS011;52639;51.180;20.460;2023-07-20T18:51:18;14.40;;;9.65;;
65863;SDS011;52639;51.180;20.460;2023-07-20T18:55:23;15.68;;;10.07;;
65863;SDS011;52639;51.180;20.460;2023-07-20T18:59:27;17.25;;;9.98;;
65863;SDS011;52639;51.180;20.460;2023-07-20T19:03:32;10.75;;;7.82;;
65863;SDS011;52639;51.180;20.460;2023-07-20T19:07:36;13.15;;;8.18;;
65863;SDS011;52639;51.180;20.460;2023-07-20T19:11:44;12.13;;;8.00;;
65863;SDS011;52639;51.180;20.460;2023-07-20T19:15:49;8.68;;;6.97;;
65863;SDS011;52639;51.180;20.460;2023-07-20T19:19:57;10.95;;;6.82;;
65863;SDS011;52639;51.180;20.460;2023-07-20T19:24:01;9.93;;;7.40;;
65863;SDS011;52639;51.180;20.460;2023-07-20T19:28:07;9.32;;;7.10;;
65863;SDS011;52639;51.180;20.460;2023-07-20T19:32:11;10.10;;;7.22;;
65863;SDS011;52639;51.180;20.460;2023-07-20T19:36:16;12.68;;;8.23;;
65863;SDS011;52639;51.180;20.460;2023-07-20T19:40:22;10.38;;;8.10;;
65863;SDS011;52639;51.180;20.460;2023-07-20T19:44:30;11.20;;;7.80;;
65863;SDS011;52639;51.180;20.460;2023-07-20T19:48:34;12.55;;;8.10;;
65863;SDS011;52639;51.180;20.460;2023-07-20T19:52:38;10.10;;;6.97;;
65863;SDS011;52639;51.180;20.460;2023-07-20T19:56:44;8.55;;;6.78;;
65863;SDS011;52639;51.180;20.460;2023-07-20T20:00:48;9.38;;;7.28;;
65863;SDS011;52639;51.180;20.460;2023-07-20T20:04:52;11.82;;;7.95;;
65863;SDS011;52639;51.180;20.460;2023-07-20T20:08:58;12.05;;;7.30;;
65863;SDS011;52639;51.180;20.460;2023-07-20T20:13:03;12.60;;;8.20;;
65863;SDS011;52639;51.180;20.460;2023-07-20T20:17:07;11.38;;;8.45;;
65863;SDS011;52639;51.180;20.460;2023-07-20T20:21:10;11.88;;;7.85;;
65863;SDS011;52639;51.180;20.460;2023-07-20T20:25:17;13.80;;;7.72;;
65863;SDS011;52639;51.180;20.460;2023-07-20T20:29:23;10.07;;;7.45;;
65863;SDS011;52639;51.180;20.460;2023-07-20T20:33:31;10.43;;;7.43;;
65863;SDS011;52639;51.180;20.460;2023-07-20T20:37:38;13.55;;;8.25;;
65863;SDS011;52639;51.180;20.460;2023-07-20T20:41:41;11.07;;;8.07;;
65863;SDS011;52639;51.180;20.460;2023-07-20T20:45:47;11.40;;;8.07;;
65863;SDS011;52639;51.180;20.460;2023-07-20T20:49:54;10.05;;;7.20;;
65863;SDS011;52639;51.180;20.460;2023-07-20T20:53:57;9.18;;;6.40;;
65863;SDS011;52639;51.180;20.460;2023-07-20T20:58:01;10.30;;;6.93;;
65863;SDS011;52639;51.180;20.460;2023-07-20T21:02:05;9.98;;;6.10;;
65863;SDS011;52639;51.180;20.460;2023-07-20T21:06:10;9.00;;;6.40;;
65863;SDS011;52639;51.180;20.460;2023-07-20T21:10:13;11.35;;;7.05;;
65863;SDS011;52639;51.180;20.460;2023-07-20T21:14:16;14.75;;;8.73;;
65863;SDS011;52639;51.180;20.460;2023-07-20T21:18:19;11.00;;;8.43;;
65863;SDS011;52639;51.180;20.460;2023-07-20T21:22:24;12.95;;;8.43;;
65863;SDS011;52639;51.180;20.460;2023-07-20T21:26:27;15.68;;;8.02;;
65863;SDS011;52639;51.180;20.460;2023-07-20T21:30:30;12.55;;;8.13;;
65863;SDS011;52639;51.180;20.460;2023-07-20T21:34:33;12.38;;;7.95;;
65863;SDS011;52639;51.180;20.460;2023-07-20T21:38:38;9.80;;;7.13;;
65863;SDS011;52639;51.180;20.460;2023-07-20T21:42:41;11.38;;;7.43;;
65863;SDS011;52639;51.180;20.460;2023-07-20T21:46:44;11.98;;;7.10;;
65863;SDS011;52639;51.180;20.460;2023-07-20T21:50:47;10.50;;;7.13;;
65863;SDS011;52639;51.180;20.460;2023-07-20T21:54:52;14.02;;;8.30;;
65863;SDS011;52639;51.180;20.460;2023-07-20T21:58:55;6.80;;;4.95;;
65863;SDS011;52639;51.180;20.460;2023-07-20T22:02:58;9.60;;;6.65;;
65863;SDS011;52639;51.180;20.460;2023-07-20T22:07:00;10.35;;;6.80;;
65863;SDS011;52639;51.180;20.460;2023-07-20T22:11:08;9.95;;;6.82;;
65863;SDS011;52639;51.180;20.460;2023-07-20T22:15:11;9.85;;;7.18;;
65863;SDS011;52639;51.180;20.460;2023-07-20T22:19:15;12.88;;;8.30;;
65863;SDS011;52639;51.180;20.460;2023-07-20T22:23:19;14.52;;;8.38;;
65863;SDS011;52639;51.180;20.460;2023-07-20T22:27:24;12.50;;;8.30;;
65863;SDS011;52639;51.180;20.460;2023-07-20T22:31:27;13.00;;;9.35;;
65863;SDS011;52639;51.180;20.460;2023-07-20T22:35:31;16.92;;;9.40;;
65863;SDS011;52639;51.180;20.460;2023-07-20T22:39:34;14.82;;;8.38;;
65863;SDS011;52639;51.180;20.460;2023-07-20T22:43:39;15.93;;;8.80;;
65863;SDS011;52639;51.180;20.460;2023-07-20T22:47:41;16.55;;;9.27;;
65863;SDS011;52639;51.180;20.460;2023-07-20T22:51:47;14.05;;;7.95;;
65863;SDS011;52639;51.180;20.460;2023-07-20T22:55:50;14.43;;;9.82;;
65863;SDS011;52639;51.180;20.460;2023-07-20T22:59:55;18.88;;;9.55;;
65863;SDS011;52639;51.180;20.460;2023-07-20T23:03:58;15.45;;;9.70;;
65863;SDS011;52639;51.180;20.460;2023-07-20T23:08:01;13.27;;;8.85;;
65863;SDS011;52639;51.180;20.460;2023-07-20T23:12:04;14.10;;;9.48;;
65863;SDS011;52639;51.180;20.460;2023-07-20T23:16:09;18.80;;;9.48;;
65863;SDS011;52639;51.180;20.460;2023-07-20T23:20:12;14.25;;;9.63;;
65863;SDS011;52639;51.180;20.460;2023-07-20T23:24:18;14.13;;;9.27;;
65863;SDS011;52639;51.180;20.460;2023-07-20T23:28:23;13.40;;;8.35;;
65863;SDS011;52639;51.180;20.460;2023-07-20T23:32:27;12.30;;;8.45;;
65863;SDS011;52639;51.180;20.460;2023-07-20T23:36:30;14.40;;;8.80;;
65863;SDS011;52639;51.180;20.460;2023-07-20T23:40:33;12.65;;;8.38;;
65863;SDS011;52639;51.180;20.460;2023-07-20T23:44:36;11.02;;;8.13;;
65863;SDS011;52639;51.180;20.460;2023-07-20T23:48:41;11.40;;;8.18;;
65863;SDS011;52639;51.180;20.460;2023-07-20T23:52:45;12.38;;;8.38;;
65863;SDS011;52639;51.180;20.460;2023-07-20T23:56:48;11.45;;;7.57;;
